Time;durP1;ratioP1;P1;durP2;ratioP2;P2;SDS_P1;SDS_P2;PMS_P1;PMS_P2;Temp;Humidity;BMP_temperature;BMP_pressure;BME280_temperature;BME280_humidity;BME280_pressure;Samples;Min_cycle;Max_cycle;Signal;HPM_P1;HPM_P2
2022/03/30 00:01:24;;;;;;;24.15;12.52;;;6.80;99.90;;;;;;5006621;28;20053;-77
2022/03/30 00:03:49;;;;;;;22.17;11.77;;;6.90;99.90;;;;;;4999300;28;20042;-77
2022/03/30 00:06:15;;;;;;;18.92;12.02;;;6.90;99.90;;;;;;4997953;28;20053;-77
2022/03/30 00:08:42;;;;;;;25.13;11.88;;;7.00;99.90;;;;;;4982185;28;20455;-77
2022/03/30 00:11:09;;;;;;;27.33;12.63;;;7.00;99.90;;;;;;4977396;28;20057;-77
2022/03/30 00:13:35;;;;;;;19.75;11.68;;;7.00;99.90;;;;;;5009931;28;20050;-77
2022/03/30 00:16:03;;;;;;;20.70;11.13;;;7.10;99.90;;;;;;5010776;28;20045;-77
2022/03/30 00:18:28;;;;;;;24.55;12.40;;;7.10;99.90;;;;;;4993826;28;20050;-77
2022/03/30 00:20:54;;;;;;;25.80;12.98;;;7.20;99.90;;;;;;5009830;28;20045;-76
2022/03/30 00:23:20;;;;;;;19.52;12.25;;;7.20;99.90;;;;;;5010121;28;20053;-77
2022/03/30 00:25:46;;;;;;;20.40;11.98;;;7.20;99.90;;;;;;5009025;28;20496;-77
2022/03/30 00:28:12;;;;;;;21.73;12.32;;;7.20;99.90;;;;;;5010467;28;20180;-77
2022/03/30 00:30:38;;;;;;;21.35;12.63;;;7.30;99.90;;;;;;5009410;28;20180;-78
2022/03/30 00:33:04;;;;;;;20.30;11.95;;;7.30;99.90;;;;;;4977274;28;20052;-77
2022/03/30 00:35:31;;;;;;;22.15;12.25;;;7.30;99.90;;;;;;5009941;28;20077;-77
2022/03/30 00:37:56;;;;;;;23.33;12.43;;;7.30;99.90;;;;;;5009235;28;20534;-77
2022/03/30 00:40:22;;;;;;;20.38;11.27;;;7.40;99.90;;;;;;4993700;28;20089;-77
2022/03/30 00:42:48;;;;;;;21.63;12.00;;;7.40;99.90;;;;;;4993612;28;20137;-77
2022/03/30 00:45:18;;;;;;;19.58;9.63;;;7.40;99.90;;;;;;4987080;28;20046;-76
2022/03/30 00:47:45;;;;;;;14.38;7.78;;;7.60;99.90;;;;;;4993788;28;20189;-77
2022/03/30 00:50:15;;;;;;;13.43;6.43;;;7.40;99.90;;;;;;4994295;28;20132;-77
2022/03/30 00:52:43;;;;;;;13.23;6.13;;;7.50;99.90;;;;;;5001688;28;20050;-77
2022/03/30 00:55:09;;;;;;;9.40;4.90;;;7.50;99.90;;;;;;5010414;28;20057;-77
2022/03/30 00:57:37;;;;;;;8.43;4.80;;;7.50;99.90;;;;;;5001975;28;20050;-78
2022/03/30 01:00:09;;;;;;;8.57;4.85;;;7.50;99.90;;;;;;5010068;28;20108;-78
2022/03/30 01:02:39;;;;;;;7.43;4.55;;;7.50;99.90;;;;;;5008926;28;20046;-77
2022/03/30 01:05:05;;;;;;;10.20;4.53;;;7.50;99.90;;;;;;5011145;28;20046;-76
2022/03/30 01:07:31;;;;;;;9.18;4.18;;;7.50;99.90;;;;;;5009253;28;20079;-78
2022/03/30 01:09:57;;;;;;;7.85;4.15;;;7.50;99.90;;;;;;4986738;28;20061;-77
2022/03/30 01:12:25;;;;;;;8.13;4.70;;;7.50;99.90;;;;;;4992536;28;20058;-78
2022/03/30 01:14:50;;;;;;;7.70;4.00;;;7.50;99.90;;;;;;5010121;28;20054;-78
2022/03/30 01:17:16;;;;;;;5.93;3.63;;;7.50;99.90;;;;;;4985496;28;20052;-77
2022/03/30 01:19:43;;;;;;;7.85;3.60;;;7.40;99.90;;;;;;4991705;28;20068;-77
2022/03/30 01:22:08;;;;;;;7.40;3.60;;;7.40;99.90;;;;;;4985351;28;20134;-78
2022/03/30 01:24:35;;;;;;;8.30;4.03;;;7.40;99.90;;;;;;5000326;28;20465;-78
2022/03/30 01:27:02;;;;;;;7.63;3.38;;;7.40;99.90;;;;;;5009643;28;20137;-78
2022/03/30 01:32:25;;;;;;;6.95;2.97;;;7.40;99.90;;;;;;5009505;28;20049;-77
2022/03/30 01:34:52;;;;;;;5.93;3.38;;;7.30;99.90;;;;;;4993223;28;20057;-77
2022/03/30 01:37:17;;;;;;;6.90;3.20;;;7.30;99.90;;;;;;5001396;28;20057;-77
2022/03/30 01:39:43;;;;;;;7.63;3.00;;;7.30;99.90;;;;;;4997193;28;20049;-77
2022/03/30 01:42:09;;;;;;;6.40;3.50;;;7.30;99.90;;;;;;4999059;28;20053;-77
2022/03/30 01:44:36;;;;;;;8.45;3.42;;;7.30;99.90;;;;;;5002507;28;20129;-77
2022/03/30 01:47:03;;;;;;;5.85;2.90;;;7.30;99.90;;;;;;5000562;28;20054;-77
2022/03/30 01:49:29;;;;;;;4.95;2.67;;;7.20;99.90;;;;;;5007989;28;20085;-78
2022/03/30 01:51:56;;;;;;;4.68;2.63;;;7.20;99.90;;;;;;4992999;28;20085;-77
2022/03/30 01:54:25;;;;;;;4.05;2.42;;;7.20;99.90;;;;;;5002492;28;20453;-77
2022/03/30 01:56:52;;;;;;;5.13;2.53;;;7.20;99.90;;;;;;5007537;28;20054;-77
2022/03/30 01:59:19;;;;;;;3.80;2.28;;;7.20;99.90;;;;;;4992310;28;20157;-78
2022/03/30 02:01:44;;;;;;;6.88;2.60;;;7.20;99.90;;;;;;4991754;28;20057;-78
2022/03/30 02:04:10;;;;;;;5.72;2.20;;;7.20;99.90;;;;;;5001401;28;20058;-78
2022/03/30 02:06:37;;;;;;;5.38;1.92;;;7.20;99.90;;;;;;4991662;28;20085;-78
2022/03/30 02:09:05;;;;;;;4.80;1.92;;;7.20;99.90;;;;;;5009129;28;20088;-78
2022/03/30 02:11:30;;;;;;;4.07;1.70;;;7.20;99.90;;;;;;4991427;28;20098;-78
2022/03/30 02:13:56;;;;;;;3.42;1.90;;;7.20;99.90;;;;;;4992892;28;20143;-77
2022/03/30 02:16:24;;;;;;;3.60;1.35;;;7.10;99.90;;;;;;4993045;28;20156;-78
2022/03/30 02:18:50;;;;;;;5.18;1.58;;;7.70;99.90;;;;;;5004368;28;20538;-78
2022/03/30 02:21:16;;;;;;;3.72;1.20;;;7.10;99.90;;;;;;4984844;28;20073;-78
2022/03/30 02:23:45;;;;;;;5.15;1.50;;;7.10;99.90;;;;;;5008250;28;20056;-78
2022/03/30 02:26:12;;;;;;;4.57;1.67;;;7.10;99.90;;;;;;5007799;28;20061;-78
2022/03/30 02:28:39;;;;;;;3.33;1.50;;;7.00;99.90;;;;;;5004726;28;20053;-78
2022/03/30 02:31:05;;;;;;;3.25;1.17;;;7.00;99.90;;;;;;4991565;28;20547;-78
2022/03/30 02:33:31;;;;;;;4.40;1.40;;;7.00;99.90;;;;;;4982663;28;20169;-79
2022/03/30 02:35:57;;;;;;;3.97;1.20;;;7.00;99.90;;;;;;5000025;28;20091;-79
2022/03/30 02:38:22;;;;;;;2.75;1.00;;;7.00;99.90;;;;;;4998847;28;20197;-79
2022/03/30 02:40:48;;;;;;;3.17;0.88;;;7.00;99.90;;;;;;5024143;28;20679;-78
2022/03/30 02:43:17;;;;;;;2.80;1.05;;;6.90;99.90;;;;;;5007857;28;20072;-79
2022/03/30 02:45:43;;;;;;;3.97;0.90;;;7.70;99.90;;;;;;5007345;28;20054;-79
2022/03/30 02:48:18;;;;;;;6.72;1.10;;;6.90;99.90;;;;;;4992220;28;20049;-79
2022/03/30 02:51:04;;;;;;;1.38;0.90;;;6.80;99.90;;;;;;5007998;28;20046;-78
2022/03/30 02:53:31;;;;;;;0.90;0.70;;;7.60;99.90;;;;;;5008922;28;20054;-79
2022/03/30 02:55:58;;;;;;;2.30;0.80;;;6.70;99.90;;;;;;5002050;28;20065;-78
2022/03/30 02:58:25;;;;;;;3.58;0.70;;;6.70;99.90;;;;;;4997920;28;20077;-78
2022/03/30 03:00:51;;;;;;;2.45;0.70;;;6.90;99.90;;;;;;5005466;28;20045;-78
2022/03/30 03:03:17;;;;;;;1.10;0.73;;;6.60;99.90;;;;;;4973940;28;20049;-78
2022/03/30 03:05:42;;;;;;;1.58;0.90;;;6.60;99.90;;;;;;5007408;28;20050;-78
2022/03/30 03:08:11;;;;;;;2.85;0.65;;;6.50;99.90;;;;;;4983236;28;20050;-78
2022/03/30 03:10:39;;;;;;;2.25;0.88;;;6.50;99.90;;;;;;5006564;28;20081;-79
2022/03/30 03:13:06;;;;;;;1.30;0.90;;;6.40;99.90;;;;;;4983659;28;20046;-78
2022/03/30 03:15:32;;;;;;;2.15;0.95;;;6.30;99.90;;;;;;4991124;28;20136;-79
2022/03/30 03:17:58;;;;;;;1.88;0.90;;;6.30;99.90;;;;;;5006985;28;20054;-78
2022/03/30 03:20:25;;;;;;;2.33;1.00;;;6.30;99.90;;;;;;4990576;28;20056;-77
2022/03/30 03:22:51;;;;;;;3.80;1.20;;;6.30;99.90;;;;;;4990059;28;20486;-78
2022/03/30 03:25:17;;;;;;;2.17;1.00;;;6.40;99.90;;;;;;5015286;28;20053;-78
2022/03/30 03:27:43;;;;;;;2.17;0.95;;;6.30;99.90;;;;;;4982900;28;20060;-79
2022/03/30 03:30:09;;;;;;;2.08;0.80;;;6.20;99.90;;;;;;5007112;28;20125;-78
2022/03/30 03:32:35;;;;;;;2.47;1.00;;;6.20;99.90;;;;;;5006224;28;20061;-78
2022/03/30 03:35:02;;;;;;;2.72;0.85;;;6.20;99.90;;;;;;5006053;28;20058;-78
2022/03/30 03:37:27;;;;;;;2.28;0.80;;;6.20;99.90;;;;;;5007472;28;20058;-78
2022/03/30 03:39:53;;;;;;;2.47;1.00;;;6.30;99.90;;;;;;5006257;28;20476;-78
2022/03/30 03:42:19;;;;;;;1.38;0.90;;;6.20;99.90;;;;;;5006096;28;20182;-78
2022/03/30 03:44:45;;;;;;;2.10;1.00;;;6.20;99.90;;;;;;5001745;28;20038;-78
2022/03/30 03:47:11;;;;;;;2.05;0.80;;;6.20;99.90;;;;;;5011286;28;20080;-79
2022/03/30 03:49:37;;;;;;;1.88;1.00;;;6.20;99.90;;;;;;5010432;28;20136;-79
2022/03/30 03:52:05;;;;;;;1.73;0.90;;;6.10;99.90;;;;;;4994637;28;20046;-78
2022/03/30 03:54:31;;;;;;;1.35;1.00;;;6.10;99.90;;;;;;5011095;28;20123;-78
2022/03/30 03:56:57;;;;;;;1.50;0.95;;;6.20;99.90;;;;;;5010934;28;20216;-78
2022/03/30 03:59:23;;;;;;;2.53;0.95;;;6.10;99.90;;;;;;4994536;28;20046;-79
2022/03/30 04:01:49;;;;;;;2.63;0.90;;;6.00;99.90;;;;;;4994155;28;20599;-79
2022/03/30 04:04:18;;;;;;;5.90;2.17;;;6.00;99.90;;;;;;5003886;28;20054;-79
2022/03/30 04:06:44;;;;;;;6.68;2.92;;;6.00;99.90;;;;;;5003546;28;20050;-79
2022/03/30 04:09:10;;;;;;;2.55;1.10;;;6.00;99.90;;;;;;5008251;28;20045;-79
2022/03/30 04:11:36;;;;;;;5.68;1.30;;;5.90;99.90;;;;;;5009618;28;20062;-78
2022/03/30 04:14:02;;;;;;;3.50;1.02;;;5.90;99.90;;;;;;5002890;28;20586;-79
2022/03/30 04:16:28;;;;;;;3.58;1.20;;;5.90;99.90;;;;;;5010157;28;20054;-79
2022/03/30 04:18:54;;;;;;;3.60;1.33;;;5.90;99.90;;;;;;4993585;28;20057;-78
2022/03/30 04:21:20;;;;;;;3.15;1.30;;;6.10;99.90;;;;;;5010748;28;20050;-79
2022/03/30 04:23:46;;;;;;;2.60;1.10;;;5.90;99.90;;;;;;5010119;28;20058;-79
2022/03/30 04:26:12;;;;;;;3.45;1.38;;;5.90;99.90;;;;;;4987735;28;20100;-79
2022/03/30 04:28:40;;;;;;;2.72;1.20;;;6.00;99.90;;;;;;5001505;28;20053;-79
2022/03/30 04:31:13;;;;;;;3.00;1.10;;;5.90;99.90;;;;;;5009979;28;20085;-78
2022/03/30 04:33:39;;;;;;;3.42;1.48;;;5.90;99.90;;;;;;5009923;28;20084;-78
2022/03/30 04:36:06;;;;;;;1.92;1.10;;;5.90;99.90;;;;;;5011597;28;20484;-78
2022/03/30 04:38:33;;;;;;;2.47;1.30;;;5.80;99.90;;;;;;5002803;28;20050;-78
2022/03/30 04:40:59;;;;;;;3.00;1.40;;;5.90;99.90;;;;;;4994453;28;20073;-78
2022/03/30 04:43:25;;;;;;;3.30;1.30;;;5.80;99.90;;;;;;5008706;28;20045;-78
2022/03/30 04:45:51;;;;;;;6.85;1.80;;;5.80;99.90;;;;;;5008646;28;20152;-78
2022/03/30 04:48:17;;;;;;;3.35;1.10;;;5.80;99.90;;;;;;4999101;28;20116;-78
2022/03/30 04:50:42;;;;;;;3.25;1.27;;;5.80;99.90;;;;;;5000990;28;20276;-78
2022/03/30 04:53:08;;;;;;;3.10;1.40;;;5.90;99.90;;;;;;4985312;28;20127;-78
2022/03/30 04:55:36;;;;;;;3.22;1.30;;;5.90;99.90;;;;;;4984396;28;20054;-78
2022/03/30 04:58:02;;;;;;;3.95;1.27;;;5.80;99.90;;;;;;4992551;28;20053;-78
2022/03/30 05:00:28;;;;;;;3.88;1.25;;;5.90;99.90;;;;;;5006744;28;20061;-78
2022/03/30 05:02:54;;;;;;;2.58;1.45;;;5.90;99.90;;;;;;5008481;28;20049;-78
2022/03/30 05:05:20;;;;;;;4.53;1.15;;;5.90;99.90;;;;;;5009448;28;20077;-78
2022/03/30 05:07:46;;;;;;;3.10;1.40;;;5.90;99.90;;;;;;4991022;28;20423;-78
2022/03/30 05:10:14;;;;;;;3.28;1.30;;;6.80;99.90;;;;;;4997207;28;20238;-77
2022/03/30 05:12:40;;;;;;;6.00;1.40;;;6.50;99.90;;;;;;5009365;28;20058;-78
2022/03/30 05:15:07;;;;;;;3.90;1.23;;;5.80;99.90;;;;;;4992559;28;20056;-78
2022/03/30 05:17:33;;;;;;;4.22;1.20;;;5.80;99.90;;;;;;4992673;28;20050;-78
2022/03/30 05:19:59;;;;;;;5.40;1.30;;;5.80;99.90;;;;;;5001816;28;20054;-77
2022/03/30 05:22:25;;;;;;;4.50;1.38;;;5.70;99.90;;;;;;4992913;28;20053;-78
2022/03/30 05:24:50;;;;;;;6.38;1.52;;;5.70;99.90;;;;;;5008022;28;20056;-78
2022/03/30 05:27:16;;;;;;;4.88;1.30;;;5.80;99.90;;;;;;5009859;28;20050;-78
2022/03/30 05:29:42;;;;;;;4.57;1.05;;;5.70;99.90;;;;;;5007886;28;20042;-78
2022/03/30 05:32:08;;;;;;;6.43;1.58;;;5.70;99.90;;;;;;4983739;28;20119;-78
2022/03/30 05:34:34;;;;;;;7.20;1.30;;;5.70;99.90;;;;;;4977182;28;20053;-79
2022/03/30 05:37:00;;;;;;;4.32;1.40;;;5.60;99.90;;;;;;4998753;28;20061;-78
2022/03/30 05:39:26;;;;;;;5.65;1.45;;;5.60;99.90;;;;;;4996290;28;20057;-79
2022/03/30 05:41:52;;;;;;;4.03;1.05;;;5.60;99.90;;;;;;5013158;28;20050;-79
2022/03/30 05:44:18;;;;;;;5.30;1.30;;;5.70;99.90;;;;;;4998491;28;20482;-78
2022/03/30 05:46:44;;;;;;;4.15;1.20;;;5.70;99.90;;;;;;5022611;28;20389;-78
2022/03/30 05:49:10;;;;;;;4.57;1.20;;;5.70;99.90;;;;;;4990939;28;20053;-78
2022/03/30 05:51:36;;;;;;;2.80;0.98;;;5.70;99.90;;;;;;5007941;28;20052;-78
2022/03/30 05:54:02;;;;;;;7.15;1.10;;;5.70;99.90;;;;;;4990838;28;20100;-78
2022/03/30 05:59:14;;;;;;;5.15;1.40;;;5.80;99.90;;;;;;5007025;28;20050;-78
2022/03/30 06:01:39;;;;;;;4.75;1.70;;;5.70;99.90;;;;;;4982944;28;20404;-79
2022/03/30 06:04:06;;;;;;;5.10;1.20;;;5.70;99.90;;;;;;4991133;28;20049;-79
2022/03/30 06:06:33;;;;;;;7.72;1.33;;;5.70;99.90;;;;;;5006705;28;20400;-81
2022/03/30 06:09:02;;;;;;;4.97;1.20;;;6.80;99.90;;;;;;4997312;28;20049;-85
2022/03/30 06:11:27;;;;;;;3.40;1.25;;;5.70;99.90;;;;;;5007233;28;20062;-77
2022/03/30 06:13:53;;;;;;;2.65;0.98;;;5.80;99.90;;;;;;5007051;28;20057;-79
2022/03/30 06:16:19;;;;;;;2.78;0.93;;;5.80;99.90;;;;;;5000263;28;20618;-76
2022/03/30 06:18:45;;;;;;;4.45;1.05;;;5.90;99.90;;;;;;4999146;28;20381;-80
2022/03/30 06:21:11;;;;;;;4.85;1.05;;;5.90;99.90;;;;;;5006350;28;20121;-81
2022/03/30 06:23:37;;;;;;;2.03;1.00;;;5.90;99.90;;;;;;4984598;28;20061;-80
2022/03/30 06:26:05;;;;;;;3.95;1.20;;;6.20;99.90;;;;;;4988814;28;20046;-80
2022/03/30 06:28:30;;;;;;;4.28;1.02;;;6.00;99.90;;;;;;4990220;28;20045;-86
2022/03/30 06:30:57;;;;;;;4.68;1.20;;;6.00;99.90;;;;;;4973631;28;20049;-77
2022/03/30 06:33:23;;;;;;;3.85;1.30;;;6.00;99.90;;;;;;4981139;28;20050;-76
2022/03/30 06:35:48;;;;;;;2.10;0.88;;;6.00;99.90;;;;;;5004960;28;20411;-80
2022/03/30 06:38:14;;;;;;;3.03;0.90;;;6.10;99.90;;;;;;4989104;28;20188;-80
2022/03/30 06:40:40;;;;;;;2.80;0.98;;;6.30;99.90;;;;;;4999796;28;20089;-79
2022/03/30 06:43:06;;;;;;;1.73;1.00;;;6.10;99.90;;;;;;4990220;28;20069;-80
2022/03/30 06:45:32;;;;;;;2.50;1.10;;;6.10;99.90;;;;;;4983563;28;20523;-80
2022/03/30 06:47:58;;;;;;;4.65;1.33;;;6.20;99.90;;;;;;4989353;28;20084;-79
2022/03/30 06:50:24;;;;;;;4.45;1.05;;;6.30;99.90;;;;;;4989264;28;20054;-79
2022/03/30 06:52:50;;;;;;;2.40;1.02;;;6.30;99.90;;;;;;4990303;28;20130;-77
2022/03/30 06:55:16;;;;;;;3.03;1.08;;;6.40;99.90;;;;;;4989786;28;20041;-79
2022/03/30 06:57:43;;;;;;;3.63;1.13;;;6.50;99.90;;;;;;4990045;28;20083;-79
2022/03/30 07:00:12;;;;;;;4.35;1.10;;;6.50;99.90;;;;;;4988412;28;20050;-80
2022/03/30 07:02:38;;;;;;;4.68;1.20;;;6.50;99.90;;;;;;4983613;28;20052;-79
2022/03/30 07:05:04;;;;;;;3.90;1.10;;;6.60;99.90;;;;;;4988379;28;20087;-79
2022/03/30 07:10:17;;;;;;;3.92;1.25;;;6.60;99.90;;;;;;5004763;28;20048;-82
2022/03/30 07:12:48;;;;;;;3.47;1.00;;;6.70;99.90;;;;;;4957043;28;20049;-78
2022/03/30 07:15:17;;;;;;;3.55;1.15;;;6.80;99.90;;;;;;5005578;28;20050;-77
2022/03/30 07:17:44;;;;;;;1.83;0.93;;;6.90;99.90;;;;;;5005512;28;20074;-78
2022/03/30 07:20:14;;;;;;;4.18;1.10;;;7.00;99.90;;;;;;5005860;28;20041;-86
2022/03/30 07:22:39;;;;;;;2.78;1.17;;;7.10;99.90;;;;;;4995117;28;20049;-78
2022/03/30 07:25:06;;;;;;;3.10;0.90;;;7.20;99.90;;;;;;5001534;28;20610;-82
2022/03/30 07:27:31;;;;;;;3.30;0.77;;;7.30;99.90;;;;;;4991239;28;20041;-78
2022/03/30 07:29:57;;;;;;;5.78;1.00;;;7.30;99.90;;;;;;5005811;28;20057;-78
2022/03/30 07:32:24;;;;;;;5.00;1.27;;;7.40;99.90;;;;;;4981688;28;20487;-78
2022/03/30 07:34:52;;;;;;;5.95;1.35;;;7.50;99.90;;;;;;4989998;28;20052;-78
2022/03/30 07:37:18;;;;;;;5.85;1.00;;;7.50;99.90;;;;;;5006643;28;20058;-77
2022/03/30 07:39:44;;;;;;;4.72;1.10;;;7.60;99.90;;;;;;4981409;28;20077;-78
2022/03/30 07:42:09;;;;;;;6.07;0.93;;;7.70;99.90;;;;;;4965390;28;20073;-78
2022/03/30 07:44:35;;;;;;;3.55;1.00;;;7.70;99.90;;;;;;4996692;28;20054;-78
2022/03/30 07:47:02;;;;;;;4.90;0.80;;;7.70;99.90;;;;;;4974094;28;20046;-77
2022/03/30 07:49:28;;;;;;;4.97;1.08;;;7.40;99.90;;;;;;5006529;28;20149;-78
2022/03/30 07:51:54;;;;;;;1.83;1.10;;;7.90;99.90;;;;;;4997479;28;20543;-78
2022/03/30 07:54:20;;;;;;;3.83;1.08;;;7.90;99.90;;;;;;5006539;28;20045;-77
2022/03/30 07:56:45;;;;;;;5.00;1.30;;;8.20;99.90;;;;;;4989821;28;20125;-78
2022/03/30 07:59:13;;;;;;;5.15;1.20;;;8.10;99.90;;;;;;5009339;28;20057;-77
2022/03/30 08:01:40;;;;;;;3.78;1.05;;;8.20;99.90;;;;;;5008881;28;20399;-78
2022/03/30 08:04:05;;;;;;;5.40;1.48;;;8.20;99.90;;;;;;5025422;28;20082;-78
2022/03/30 08:06:31;;;;;;;4.95;1.17;;;8.30;99.90;;;;;;5008039;28;20460;-78
2022/03/30 08:08:57;;;;;;;4.57;1.42;;;8.40;99.90;;;;;;4999143;28;20060;-79
2022/03/30 08:11:23;;;;;;;6.43;1.33;;;8.40;99.90;;;;;;5000074;28;20058;-77
2022/03/30 08:13:49;;;;;;;3.83;1.25;;;8.40;99.90;;;;;;4982915;28;20066;-79
2022/03/30 08:16:14;;;;;;;3.38;1.00;;;8.70;99.90;;;;;;4983197;28;20045;-78
2022/03/30 08:18:40;;;;;;;6.68;1.10;;;8.50;99.90;;;;;;5022802;28;20069;-78
2022/03/30 08:23:50;;;;;;;4.53;0.90;;;8.70;99.90;;;;;;4986374;28;20050;-78
2022/03/30 08:26:16;;;;;;;4.28;1.20;;;8.80;99.90;;;;;;4982454;28;20065;-78
2022/03/30 08:28:42;;;;;;;4.05;1.27;;;8.90;99.90;;;;;;4982655;28;20439;-78
2022/03/30 08:31:09;;;;;;;5.63;1.10;;;8.90;99.90;;;;;;5007818;28;20060;-78
2022/03/30 08:33:35;;;;;;;6.35;1.25;;;8.90;99.90;;;;;;4986327;28;20109;-77
2022/03/30 08:36:00;;;;;;;4.07;1.00;;;8.90;99.90;;;;;;5010672;28;20042;-77
2022/03/30 08:38:27;;;;;;;4.20;1.33;;;8.90;99.90;;;;;;4992095;28;20113;-77
2022/03/30 08:40:56;;;;;;;3.58;0.98;;;8.80;99.90;;;;;;5009296;28;20058;-78
2022/03/30 08:43:22;;;;;;;4.03;1.17;;;8.80;99.90;;;;;;5009751;28;20050;-77
2022/03/30 08:45:48;;;;;;;3.97;1.20;;;8.80;99.90;;;;;;5009736;28;20061;-77
2022/03/30 08:48:13;;;;;;;4.70;1.08;;;8.80;99.90;;;;;;5008376;28;20048;-77
2022/03/30 08:50:39;;;;;;;3.08;0.80;;;8.80;99.90;;;;;;5011027;28;20053;-77
2022/03/30 08:53:06;;;;;;;3.88;0.98;;;8.80;99.90;;;;;;5009927;28;20121;-77
2022/03/30 08:55:32;;;;;;;2.30;0.80;;;8.80;99.90;;;;;;5010441;28;20060;-77
2022/03/30 08:58:00;;;;;;;4.57;0.88;;;9.40;99.90;;;;;;5009870;28;20049;-77
2022/03/30 09:00:25;;;;;;;3.28;1.10;;;8.90;99.90;;;;;;5008361;28;20468;-77
2022/03/30 09:02:59;;;;;;;4.50;0.88;;;8.90;99.90;;;;;;4993944;28;20081;-77
2022/03/30 09:05:27;;;;;;;4.93;1.15;;;9.00;99.90;;;;;;5025959;28;20054;-77
2022/03/30 09:08:14;;;;;;;3.55;0.88;;;9.20;99.90;;;;;;5001984;28;20053;-77
2022/03/30 09:10:45;;;;;;;3.97;0.90;;;9.30;99.90;;;;;;5006953;28;20464;-77
2022/03/30 09:13:14;;;;;;;3.67;0.80;;;9.50;99.90;;;;;;5001306;28;20057;-78
2022/03/30 09:15:41;;;;;;;5.15;1.45;;;9.70;99.90;;;;;;5007959;28;20050;-78
2022/03/30 09:18:09;;;;;;;3.15;1.00;;;9.90;99.90;;;;;;4986861;28;20501;-79
2022/03/30 09:20:40;;;;;;;3.72;0.90;;;10.10;99.90;;;;;;5008695;28;20561;-79
2022/03/30 09:23:09;;;;;;;3.13;0.88;;;10.30;99.90;;;;;;5000788;28;20045;-79
2022/03/30 09:25:35;;;;;;;2.95;0.90;;;10.40;99.90;;;;;;5007835;28;20372;-80
2022/03/30 09:28:01;;;;;;;3.15;1.00;;;10.70;99.90;;;;;;4983073;28;20052;-79
2022/03/30 09:30:28;;;;;;;4.70;0.93;;;11.00;99.90;;;;;;4999829;28;20065;-79
2022/03/30 09:32:57;;;;;;;2.20;0.90;;;11.30;99.90;;;;;;4991305;28;20455;-80
2022/03/30 09:35:27;;;;;;;3.55;1.00;;;11.70;99.90;;;;;;5008474;28;20080;-79
2022/03/30 09:38:02;;;;;;;5.20;1.27;;;12.00;99.90;;;;;;5008635;28;20107;-80
2022/03/30 09:40:48;;;;;;;6.00;1.10;;;12.40;99.90;;;;;;4992617;28;20046;-79
2022/03/30 09:43:26;;;;;;;2.13;0.85;;;12.60;99.90;;;;;;4985728;28;20034;-79
2022/03/30 09:46:08;;;;;;;2.60;0.80;;;12.90;99.90;;;;;;4990917;28;20065;-80
2022/03/30 09:48:43;;;;;;;1.88;0.60;;;13.20;99.90;;;;;;5002389;28;20057;-80
2022/03/30 09:51:10;;;;;;;2.08;0.82;;;13.40;99.90;;;;;;4991408;28;20045;-79
2022/03/30 09:53:37;;;;;;;2.05;0.77;;;13.70;99.90;;;;;;4985754;28;20066;-80
2022/03/30 09:56:08;;;;;;;4.15;1.10;;;14.00;99.90;;;;;;4985589;28;20118;-80
2022/03/30 09:58:38;;;;;;;2.20;1.00;;;14.00;99.90;;;;;;4986466;28;20120;-81
2022/03/30 10:01:19;;;;;;;5.15;1.13;;;13.80;99.90;;;;;;5008038;28;20054;-77
2022/03/30 10:03:48;;;;;;;5.07;0.70;;;13.70;99.90;;;;;;4991343;28;20092;-76
2022/03/30 10:06:24;;;;;;;3.20;0.80;;;13.90;99.90;;;;;;5001110;28;20110;-77
2022/03/30 10:08:51;;;;;;;2.65;0.70;;;14.00;99.90;;;;;;5004747;28;20104;-78
2022/03/30 10:11:17;;;;;;;1.63;0.70;;;14.00;99.90;;;;;;4987770;28;20049;-76
2022/03/30 10:13:51;;;;;;;2.83;0.93;;;14.00;99.90;;;;;;4989202;28;20141;-77
2022/03/30 10:16:18;;;;;;;1.88;0.73;;;14.30;99.10;;;;;;4994640;28;20105;-77
2022/03/30 10:18:45;;;;;;;2.55;0.98;;;14.50;99.00;;;;;;4981314;28;20049;-78
2022/03/30 10:21:43;;;;;;;2.22;0.70;;;14.70;98.30;;;;;;4997778;28;20067;-77
2022/03/30 10:24:39;;;;;;;2.45;1.00;;;14.80;95.70;;;;;;4989601;28;20053;-77
2022/03/30 10:27:28;;;;;;;2.58;0.80;;;14.90;95.70;;;;;;5008022;28;20053;-77
2022/03/30 10:29:59;;;;;;;2.15;0.90;;;14.90;95.40;;;;;;5006628;28;20054;-77
2022/03/30 10:32:31;;;;;;;2.78;0.73;;;14.80;96.40;;;;;;4991397;28;20049;-77
2022/03/30 10:35:13;;;;;;;2.00;0.60;;;14.70;95.90;;;;;;5024570;28;20045;-79
2022/03/30 10:37:44;;;;;;;2.22;0.80;;;14.50;92.40;;;;;;5005427;28;20084;-80
2022/03/30 10:40:19;;;;;;;1.75;0.70;;;14.30;94.30;;;;;;5006075;28;20046;-80
2022/03/30 10:42:49;;;;;;;2.33;0.70;;;14.00;94.30;;;;;;4991759;28;20041;-77
2022/03/30 10:45:40;;;;;;;1.65;0.75;;;13.90;94.90;;;;;;4990466;28;20439;-76
2022/03/30 10:48:11;;;;;;;3.00;0.60;;;13.70;93.50;;;;;;4980849;28;20126;-77
2022/03/30 10:50:43;;;;;;;1.08;0.70;;;13.70;95.90;;;;;;4989800;28;20072;-83
2022/03/30 10:53:30;;;;;;;2.85;0.85;;;13.70;95.80;;;;;;4984078;28;20068;-77
2022/03/30 10:56:14;;;;;;;2.28;0.70;;;13.60;92.70;;;;;;5022609;28;20073;-76
2022/03/30 10:58:49;;;;;;;3.05;0.90;;;13.50;93.70;;;;;;5007210;28;20495;-80
2022/03/30 11:01:22;;;;;;;5.00;1.00;;;13.40;95.40;;;;;;5006944;28;20099;-78
2022/03/30 11:04:19;;;;;;;3.88;1.40;;;13.30;97.00;;;;;;4984930;28;20585;-76
2022/03/30 11:06:46;;;;;;;;;;;13.20;96.40;;;;;;5006935;28;20054;-79
2022/03/30 11:09:25;;;;;;;2.90;1.13;;;13.10;96.90;;;;;;4985741;28;19925;-77
2022/03/30 11:12:02;;;;;;;3.28;0.95;;;13.00;98.30;;;;;;5006228;28;20066;-77
2022/03/30 11:14:33;;;;;;;2.88;1.00;;;12.90;98.10;;;;;;4999432;28;20056;-76
2022/03/30 11:17:00;;;;;;;3.65;0.80;;;12.80;99.00;;;;;;5015868;28;20064;-76
2022/03/30 11:19:31;;;;;;;4.13;1.20;;;12.70;98.90;;;;;;5005981;28;20088;-77
2022/03/30 11:22:11;;;;;;;2.60;1.00;;;12.70;98.90;;;;;;4984868;28;20046;-79
2022/03/30 11:24:45;;;;;;;2.78;0.90;;;12.60;98.20;;;;;;5001155;28;20049;-77
2022/03/30 11:27:10;;;;;;;5.85;1.10;;;12.60;99.20;;;;;;4992671;28;20104;-78
2022/03/30 11:29:49;;;;;;;4.70;1.25;;;12.50;99.30;;;;;;5012661;28;20057;-78
2022/03/30 11:32:24;;;;;;;4.53;1.08;;;12.40;98.80;;;;;;5008943;28;20119;-77
2022/03/30 11:34:54;;;;;;;5.03;0.93;;;12.30;98.90;;;;;;5006550;28;20050;-78
2022/03/30 11:37:20;;;;;;;2.53;0.98;;;12.10;99.10;;;;;;5006590;28;20045;-77
2022/03/30 11:39:49;;;;;;;2.85;1.05;;;12.00;99.60;;;;;;4998360;28;20498;-77
2022/03/30 11:42:20;;;;;;;5.43;1.05;;;11.80;99.60;;;;;;4982337;28;20049;-78
2022/03/30 11:47:35;;;;;;;3.58;1.20;;;11.70;99.90;;;;;;5005965;28;20053;-80
2022/03/30 11:50:01;;;;;;;5.75;1.10;;;11.50;99.90;;;;;;4971865;28;20049;-79
2022/03/30 11:52:27;;;;;;;3.65;0.88;;;11.60;99.90;;;;;;4995712;28;20050;-80
2022/03/30 11:54:54;;;;;;;3.70;1.30;;;11.60;99.90;;;;;;5006113;28;20054;-77
2022/03/30 11:57:22;;;;;;;4.03;1.08;;;11.80;99.90;;;;;;5003836;28;20049;-76
2022/03/30 12:00:00;;;;;;;3.08;0.90;;;11.90;99.90;;;;;;4998917;28;20061;-77
2022/03/30 12:02:27;;;;;;;3.92;0.90;;;11.90;99.30;;;;;;4988196;28;20065;-76
2022/03/30 12:04:54;;;;;;;2.80;1.10;;;11.90;99.70;;;;;;4989433;28;20175;-76
2022/03/30 12:07:20;;;;;;;3.28;1.08;;;11.80;99.60;;;;;;5008030;28;20057;-76
2022/03/30 12:09:50;;;;;;;2.67;0.95;;;11.80;99.70;;;;;;5001565;28;20049;-79
2022/03/30 12:12:31;;;;;;;4.45;1.10;;;11.60;99.40;;;;;;4988726;28;20141;-79
2022/03/30 12:15:07;;;;;;;3.97;0.90;;;11.60;99.00;;;;;;5008516;28;20046;-79
2022/03/30 12:17:33;;;;;;;;;;;11.50;99.30;;;;;;5008006;28;20551;-79
2022/03/30 12:20:02;;;;;;;3.10;0.95;;;11.50;98.50;;;;;;5007514;28;20047;-79
2022/03/30 12:22:35;;;;;;;3.42;0.88;;;11.60;99.70;;;;;;4990809;28;20046;-76
2022/03/30 12:25:01;;;;;;;1.83;0.82;;;12.10;99.30;;;;;;5000071;28;20050;-76
2022/03/30 12:27:27;;;;;;;3.72;0.90;;;12.30;98.60;;;;;;5006946;28;20042;-77
2022/03/30 12:29:56;;;;;;;4.22;0.85;;;12.40;98.20;;;;;;4977038;28;20060;-80
2022/03/30 12:32:24;;;;;;;2.13;0.85;;;12.40;97.90;;;;;;4985991;28;20399;-82
2022/03/30 12:35:04;;;;;;;1.52;0.85;;;12.40;98.00;;;;;;5005043;28;20050;-79
2022/03/30 12:37:30;;;;;;;2.92;1.08;;;12.40;98.00;;;;;;4985685;28;20054;-80
2022/03/30 12:40:11;;;;;;;2.80;0.90;;;12.50;98.00;;;;;;4984805;28;20057;-79
2022/03/30 12:42:37;;;;;;;3.00;0.95;;;12.70;97.50;;;;;;5006652;28;20041;-80
2022/03/30 12:45:10;;;;;;;2.38;0.85;;;12.80;97.50;;;;;;5006749;28;20068;-78
2022/03/30 12:47:51;;;;;;;3.25;0.90;;;12.90;97.10;;;;;;4989971;28;20088;-78
2022/03/30 12:50:27;;;;;;;2.35;0.98;;;12.90;96.30;;;;;;4988420;28;20046;-79
2022/03/30 12:52:54;;;;;;;3.55;1.00;;;13.20;96.70;;;;;;4985627;28;20046;-81
2022/03/30 12:55:32;;;;;;;3.95;0.95;;;13.30;96.60;;;;;;4995344;28;20159;-79
2022/03/30 12:57:59;;;;;;;2.83;1.00;;;13.30;95.70;;;;;;5004349;28;20049;-80
2022/03/30 13:00:46;;;;;;;4.53;1.05;;;13.10;96.10;;;;;;4999071;28;20153;-80
2022/03/30 13:03:24;;;;;;;3.97;0.73;;;12.80;95.20;;;;;;4984845;28;20395;-79
2022/03/30 13:06:10;;;;;;;4.93;0.90;;;12.50;96.10;;;;;;4982760;28;20519;-80
2022/03/30 13:08:37;;;;;;;3.53;1.00;;;12.20;96.00;;;;;;4994863;28;20073;-80
2022/03/30 13:11:08;;;;;;;2.90;0.93;;;11.90;97.10;;;;;;4986101;28;20121;-78
2022/03/30 13:13:39;;;;;;;6.20;1.30;;;11.60;97.30;;;;;;5021793;28;20411;-82